createdAt,value
2023-02-20T00:00:01.726Z,6295.00
2023-02-20T00:00:11.707Z,6294.00
2023-02-20T00:00:21.719Z,6295.00
2023-02-20T00:00:31.719Z,6293.00
2023-02-20T00:00:41.726Z,6296.00
2023-02-20T00:00:51.723Z,6299.00
2023-02-20T00:01:01.707Z,6296.00
2023-02-20T00:01:11.715Z,6294.00
2023-02-20T00:01:21.719Z,6270.00
2023-02-20T00:01:31.701Z,6257.00
2023-02-20T00:01:41.715Z,6265.00
2023-02-20T00:01:51.693Z,6264.00
2023-02-20T00:02:01.693Z,6259.00
2023-02-20T00:02:11.727Z,6260.00
2023-02-20T00:02:21.734Z,6255.00
2023-02-20T00:02:31.836Z,6249.00
2023-02-20T00:02:41.778Z,6242.00
2023-02-20T00:02:51.695Z,6247.00
2023-02-20T00:03:01.682Z,6249.00
2023-02-20T00:03:11.932Z,6249.00
2023-02-20T00:03:21.723Z,6245.00
2023-02-20T00:03:31.750Z,6255.00
2023-02-20T00:03:41.703Z,6253.00
2023-02-20T00:03:51.772Z,6254.00
2023-02-20T00:04:01.725Z,6274.00
2023-02-20T00:04:11.687Z,6280.00
2023-02-20T00:04:21.689Z,6291.00
2023-02-20T00:04:31.695Z,6312.00
2023-02-20T00:04:41.693Z,6323.00
2023-02-20T00:04:51.689Z,6320.00
2023-02-20T00:05:01.700Z,6310.00
2023-02-20T00:05:11.691Z,6302.00
2023-02-20T00:05:21.707Z,6305.00
2023-02-20T00:05:31.682Z,6294.00
2023-02-20T00:05:41.697Z,6287.00
2023-02-20T00:05:51.700Z,6287.00
2023-02-20T00:06:01.689Z,6288.00
2023-02-20T00:06:11.913Z,6285.00
2023-02-20T00:06:21.757Z,6301.00
2023-02-20T00:06:31.758Z,6298.00
2023-02-20T00:06:43.209Z,6308.00
2023-02-20T00:06:51.741Z,6358.00
2023-02-20T00:07:01.753Z,6358.00
2023-02-20T00:07:11.755Z,6359.00
2023-02-20T00:07:21.748Z,6333.00
2023-02-20T00:07:31.759Z,6329.00
2023-02-20T00:07:41.786Z,6340.00
2023-02-20T00:07:51.737Z,6353.00
2023-02-20T00:08:01.760Z,6375.00
2023-02-20T00:08:11.750Z,6387.00
2023-02-20T00:08:21.777Z,6396.00
2023-02-20T00:08:31.724Z,6391.00
2023-02-20T00:08:41.726Z,6382.00
2023-02-20T00:08:51.729Z,6374.00
2023-02-20T00:09:01.738Z,6386.00
2023-02-20T00:09:11.749Z,6412.00
2023-02-20T00:09:21.757Z,6415.00
2023-02-20T00:09:31.726Z,6413.00
2023-02-20T00:09:41.746Z,6410.00
2023-02-20T00:09:51.727Z,6417.00
2023-02-20T00:10:01.733Z,6401.00
2023-02-20T00:10:11.726Z,6422.00
2023-02-20T00:10:21.734Z,6422.00
2023-02-20T00:10:31.736Z,6420.00
2023-02-20T00:10:41.742Z,6426.00
2023-02-20T00:10:51.735Z,6420.00
2023-02-20T00:11:01.749Z,6411.00
2023-02-20T00:11:11.728Z,6401.00
2023-02-20T00:11:21.735Z,6396.00
2023-02-20T00:11:31.748Z,6401.00
2023-02-20T00:11:41.744Z,6389.00
2023-02-20T00:11:51.745Z,6408.00
2023-02-20T00:12:01.729Z,6402.00
2023-02-20T00:12:11.717Z,6416.00
2023-02-20T00:12:21.738Z,6409.00
2023-02-20T00:12:31.731Z,6421.00
2023-02-20T00:12:41.729Z,6426.00
2023-02-20T00:12:51.741Z,6405.00
2023-02-20T00:13:01.730Z,6408.00
2023-02-20T00:13:11.732Z,6408.00
2023-02-20T00:13:21.806Z,6406.00
2023-02-20T00:13:31.716Z,6410.00
2023-02-20T00:13:41.714Z,6416.00
2023-02-20T00:13:51.701Z,6410.00
2023-02-20T00:14:01.736Z,6403.00
2023-02-20T00:14:11.737Z,6400.00
2023-02-20T00:14:21.702Z,6390.00
2023-02-20T00:14:31.729Z,6381.00
2023-02-20T00:14:41.718Z,6377.00
2023-02-20T00:14:51.707Z,6373.00
2023-02-20T00:15:01.703Z,6366.00
2023-02-20T00:15:11.707Z,6362.00
2023-02-20T00:15:21.716Z,6366.00
2023-02-20T00:15:31.777Z,6357.00
2023-02-20T00:15:41.726Z,6355.00
2023-02-20T00:15:51.772Z,6366.00
2023-02-20T00:16:01.739Z,6373.00
2023-02-20T00:16:11.943Z,6376.00
2023-02-20T00:16:21.721Z,6388.00
2023-02-20T00:16:31.713Z,6388.00
2023-02-20T00:16:41.712Z,6398.00
2023-02-20T00:16:51.704Z,6407.00
2023-02-20T00:17:01.712Z,6400.00
2023-02-20T00:17:11.712Z,6385.00
2023-02-20T00:17:21.697Z,6401.00
2023-02-20T00:17:31.714Z,6411.00
2023-02-20T00:17:41.713Z,6405.00
2023-02-20T00:17:51.707Z,6398.00
2023-02-20T00:18:01.717Z,6392.00
2023-02-20T00:18:11.717Z,6386.00
2023-02-20T00:18:21.696Z,6385.00
2023-02-20T00:18:31.760Z,6385.00
2023-02-20T00:18:41.676Z,6382.00
2023-02-20T00:18:51.692Z,6394.00
2023-02-20T00:19:01.682Z,6400.00
2023-02-20T00:19:11.685Z,6383.00
2023-02-20T00:19:21.731Z,6388.00
2023-02-20T00:19:31.709Z,6387.00
2023-02-20T00:19:41.696Z,6385.00
2023-02-20T00:19:51.690Z,6384.00
2023-02-20T00:20:01.721Z,6377.00
2023-02-20T00:20:11.704Z,6372.00
2023-02-20T00:20:21.699Z,6362.00
2023-02-20T00:20:31.699Z,6359.00
2023-02-20T00:20:41.692Z,6351.00
2023-02-20T00:20:51.701Z,6348.00
2023-02-20T00:21:01.698Z,6335.00
2023-02-20T00:21:11.688Z,6324.00
2023-02-20T00:21:21.692Z,6318.00
2023-02-20T00:21:31.697Z,6309.00
2023-02-20T00:21:41.701Z,6297.00
2023-02-20T00:21:51.711Z,6303.00
2023-02-20T00:22:01.696Z,6320.00
2023-02-20T00:22:11.685Z,6313.00
2023-02-20T00:22:21.690Z,6306.00
2023-02-20T00:22:31.693Z,6287.00
2023-02-20T00:22:41.695Z,6289.00
2023-02-20T00:22:51.690Z,6281.00
2023-02-20T00:23:01.707Z,6268.00
2023-02-20T00:23:11.669Z,6258.00
2023-02-20T00:23:21.700Z,6231.00
2023-02-20T00:23:31.693Z,6239.00
2023-02-20T00:23:41.744Z,6239.00
2023-02-20T00:23:51.684Z,6227.00
2023-02-20T00:24:01.676Z,6217.00
2023-02-20T00:24:11.680Z,6203.00
2023-02-20T00:24:21.697Z,6214.00
2023-02-20T00:24:31.684Z,6201.00
2023-02-20T00:24:41.671Z,6190.00
2023-02-20T00:24:51.680Z,6203.00
2023-02-20T00:25:01.715Z,6204.00
2023-02-20T00:25:11.674Z,6208.00
2023-02-20T00:25:21.661Z,6221.00
2023-02-20T00:25:31.686Z,6224.00
2023-02-20T00:25:41.674Z,6240.00
2023-02-20T00:25:51.684Z,6240.00
2023-02-20T00:26:01.665Z,6254.00
2023-02-20T00:26:12.068Z,6254.00
2023-02-20T00:26:21.661Z,6263.00
2023-02-20T00:26:31.696Z,6264.00
2023-02-20T00:26:41.674Z,6247.00
2023-02-20T00:26:51.665Z,6252.00
2023-02-20T00:27:01.669Z,6254.00
2023-02-20T00:27:11.666Z,6241.00
2023-02-20T00:27:21.668Z,6232.00
2023-02-20T00:27:31.689Z,6221.00
2023-02-20T00:27:41.690Z,6228.00
2023-02-20T00:27:51.669Z,6226.00
2023-02-20T00:28:01.653Z,6236.00
2023-02-20T00:28:11.662Z,6236.00
2023-02-20T00:28:21.659Z,6245.00
2023-02-20T00:28:31.665Z,6239.00
2023-02-20T00:28:41.649Z,6223.00
2023-02-20T00:28:51.713Z,6217.00
2023-02-20T00:29:01.662Z,6212.00
2023-02-20T00:29:11.665Z,6220.00
2023-02-20T00:29:21.655Z,6232.00
2023-02-20T00:29:34.137Z,6232.00
2023-02-20T00:29:41.657Z,6232.00
2023-02-20T00:29:51.667Z,6232.00
2023-02-20T00:30:01.733Z,6233.00
2023-02-20T00:30:11.702Z,6234.00
2023-02-20T00:30:21.695Z,6235.00
2023-02-20T00:30:31.688Z,6235.00
2023-02-20T00:30:41.705Z,6236.00
2023-02-20T00:30:51.679Z,6236.00
2023-02-20T00:31:01.672Z,6237.00
2023-02-20T00:31:11.678Z,6237.00
2023-02-20T00:31:21.716Z,6236.00
2023-02-20T00:31:31.655Z,6236.00
2023-02-20T00:31:41.675Z,6235.00
2023-02-20T00:31:51.668Z,6236.00
2023-02-20T00:32:01.685Z,6238.00
2023-02-20T00:32:11.651Z,6233.00
2023-02-20T00:32:21.655Z,6229.00
2023-02-20T00:32:31.665Z,6216.00
2023-02-20T00:32:41.662Z,6209.00
2023-02-20T00:32:51.645Z,6196.00
2023-02-20T00:33:01.635Z,6213.00
2023-02-20T00:33:11.646Z,6199.00
2023-02-20T00:33:21.640Z,6185.00
2023-02-20T00:33:31.640Z,6204.00
2023-02-20T00:33:41.637Z,6193.00
2023-02-20T00:33:51.655Z,6192.00
2023-02-20T00:34:01.692Z,6182.00
2023-02-20T00:34:11.653Z,6186.00
2023-02-20T00:34:21.673Z,6184.00
2023-02-20T00:34:31.640Z,6180.00
2023-02-20T00:34:41.637Z,6190.00
2023-02-20T00:34:51.621Z,6189.00
2023-02-20T00:35:01.655Z,6186.00
2023-02-20T00:35:11.628Z,6194.00
2023-02-20T00:35:21.618Z,6188.00
2023-02-20T00:35:31.632Z,6195.00
2023-02-20T00:35:41.637Z,6193.00
2023-02-20T00:35:51.641Z,6189.00
2023-02-20T00:36:01.648Z,6177.00
2023-02-20T00:36:11.794Z,6178.00
2023-02-20T00:36:21.639Z,6169.00
2023-02-20T00:36:31.628Z,6153.00
2023-02-20T00:36:41.627Z,6154.00
2023-02-20T00:36:51.630Z,6126.00
2023-02-20T00:37:01.617Z,6101.00
2023-02-20T00:37:11.648Z,6079.00
2023-02-20T00:37:21.637Z,6066.00
2023-02-20T00:37:31.633Z,6045.00
2023-02-20T00:37:41.629Z,6019.00
2023-02-20T00:37:51.635Z,6024.00
2023-02-20T00:38:01.637Z,6018.00
2023-02-20T00:38:11.648Z,6012.00
2023-02-20T00:38:21.621Z,6019.00
2023-02-20T00:38:31.616Z,6004.00
2023-02-20T00:38:41.638Z,6001.00
2023-02-20T00:38:51.636Z,5998.00
2023-02-20T00:39:01.645Z,5995.00
2023-02-20T00:39:11.665Z,5997.00
2023-02-20T00:39:21.661Z,5996.00
2023-02-20T00:39:31.643Z,5982.00
2023-02-20T00:39:41.626Z,5976.00
2023-02-20T00:39:51.615Z,5974.00
2023-02-20T00:40:01.623Z,5960.00
2023-02-20T00:40:11.648Z,5953.00
2023-02-20T00:40:21.621Z,5956.00
2023-02-20T00:40:31.616Z,5945.00
2023-02-20T00:40:41.615Z,5946.00
2023-02-20T00:40:51.605Z,5944.00
2023-02-20T00:41:01.626Z,5937.00
2023-02-20T00:41:11.613Z,5933.00
2023-02-20T00:41:21.609Z,5928.00
2023-02-20T00:41:31.639Z,5915.00
2023-02-20T00:41:41.612Z,5914.00
2023-02-20T00:41:51.612Z,5902.00
2023-02-20T00:42:01.622Z,5898.00
2023-02-20T00:42:11.632Z,5884.00
2023-02-20T00:42:21.609Z,5881.00
2023-02-20T00:42:31.602Z,5879.00
2023-02-20T00:42:41.612Z,5896.00
2023-02-20T00:42:51.611Z,5908.00
2023-02-20T00:43:01.604Z,5917.00
2023-02-20T00:43:11.638Z,5910.00
2023-02-20T00:43:21.641Z,5924.00
2023-02-20T00:43:31.635Z,5917.00
2023-02-20T00:43:41.654Z,5908.00
2023-02-20T00:43:51.662Z,5900.00
2023-02-20T00:44:01.640Z,5899.00
2023-02-20T00:44:11.666Z,5898.00
2023-02-20T00:44:21.734Z,5896.00
2023-02-20T00:44:31.693Z,5900.00
2023-02-20T00:44:41.692Z,5896.00
2023-02-20T00:44:51.703Z,5904.00
2023-02-20T00:45:01.693Z,5904.00
2023-02-20T00:45:11.738Z,5912.00
2023-02-20T00:45:21.746Z,5893.00
2023-02-20T00:45:31.736Z,5902.00
2023-02-20T00:45:41.763Z,5894.00
2023-02-20T00:45:51.766Z,5901.00
2023-02-20T00:46:01.801Z,5880.00
2023-02-20T00:46:12.102Z,5887.00
2023-02-20T00:46:21.804Z,5880.00
2023-02-20T00:46:31.811Z,5878.00
2023-02-20T00:46:41.788Z,5895.00
2023-02-20T00:46:51.770Z,5904.00
2023-02-20T00:47:01.781Z,5923.00
2023-02-20T00:47:11.784Z,5916.00
2023-02-20T00:47:21.781Z,5930.00
2023-02-20T00:47:31.772Z,5928.00
2023-02-20T00:47:41.779Z,5938.00
2023-02-20T00:47:51.785Z,5926.00
2023-02-20T00:48:01.784Z,5943.00
2023-02-20T00:48:11.784Z,5945.00
2023-02-20T00:48:21.767Z,5956.00
2023-02-20T00:48:31.786Z,5960.00
2023-02-20T00:48:41.780Z,5961.00
2023-02-20T00:48:51.784Z,5963.00
2023-02-20T00:49:01.794Z,5971.00
2023-02-20T00:49:11.759Z,5974.00
2023-02-20T00:49:21.842Z,5974.00
2023-02-20T00:49:31.752Z,5969.00
2023-02-20T00:49:41.762Z,5978.00
2023-02-20T00:49:51.777Z,5986.00
2023-02-20T00:50:01.753Z,5980.00
2023-02-20T00:50:11.799Z,5971.00
2023-02-20T00:50:21.754Z,5979.00
2023-02-20T00:50:31.769Z,5982.00
2023-02-20T00:50:41.751Z,5980.00
2023-02-20T00:50:51.757Z,5975.00
2023-02-20T00:51:01.765Z,5983.00
2023-02-20T00:51:11.760Z,5990.00
2023-02-20T00:51:21.757Z,5989.00
2023-02-20T00:51:31.765Z,5980.00
2023-02-20T00:51:41.778Z,5980.00
2023-02-20T00:51:51.777Z,5980.00
2023-02-20T00:52:01.773Z,5960.00
2023-02-20T00:52:12.529Z,5956.00
2023-02-20T00:52:21.815Z,5953.00
2023-02-20T00:52:31.811Z,5955.00
2023-02-20T00:52:41.806Z,5943.00
2023-02-20T00:52:51.803Z,5950.00
2023-02-20T00:53:01.779Z,5944.00
2023-02-20T00:53:11.791Z,5940.00
2023-02-20T00:53:21.789Z,5939.00
2023-02-20T00:53:31.817Z,5944.00
2023-02-20T00:53:41.799Z,5949.00
2023-02-20T00:53:51.799Z,5949.00
2023-02-20T00:54:01.813Z,5951.00
2023-02-20T00:54:11.794Z,5939.00
2023-02-20T00:54:21.794Z,5942.00
2023-02-20T00:54:31.880Z,5945.00
2023-02-20T00:54:41.790Z,5942.00
2023-02-20T00:54:51.782Z,5938.00
2023-02-20T00:55:01.800Z,5957.00
2023-02-20T00:55:11.797Z,5953.00
2023-02-20T00:55:21.800Z,5944.00
2023-02-20T00:55:31.800Z,5956.00
2023-02-20T00:55:41.789Z,5946.00
2023-02-20T00:55:51.794Z,5949.00
2023-02-20T00:56:01.799Z,5959.00
2023-02-20T00:56:11.971Z,5956.00
2023-02-20T00:56:21.794Z,5959.00
2023-02-20T00:56:31.804Z,5945.00
2023-02-20T00:56:41.799Z,5937.00
2023-02-20T00:56:51.774Z,5923.00
2023-02-20T00:57:01.791Z,5921.00
2023-02-20T00:57:11.790Z,5898.00
2023-02-20T00:57:21.790Z,5907.00
2023-02-20T00:57:31.801Z,5909.00
2023-02-20T00:57:41.791Z,5922.00
2023-02-20T00:57:51.784Z,5911.00
2023-02-20T00:58:01.780Z,5911.00
2023-02-20T00:58:11.790Z,5906.00
2023-02-20T00:58:21.775Z,5913.00
2023-02-20T00:58:31.798Z,5906.00
2023-02-20T00:58:41.801Z,5920.00
2023-02-20T00:58:51.782Z,5920.00
2023-02-20T00:59:01.779Z,5921.00
2023-02-20T00:59:11.772Z,5932.00
2023-02-20T00:59:21.792Z,5918.00
2023-02-20T00:59:31.781Z,5917.00
2023-02-20T00:59:41.825Z,5915.00
2023-02-20T00:59:51.792Z,5925.00
2023-02-20T01:00:01.786Z,5924.00
2023-02-20T01:00:11.796Z,5922.00
2023-02-20T01:00:21.781Z,5943.00
2023-02-20T01:00:31.774Z,5931.00
2023-02-20T01:00:41.788Z,5926.00
2023-02-20T01:00:51.787Z,5932.00
2023-02-20T01:01:01.779Z,5933.00
2023-02-20T01:01:11.796Z,5932.00
2023-02-20T01:01:21.795Z,5938.00
2023-02-20T01:01:31.816Z,5933.00
2023-02-20T01:01:41.831Z,5936.00
2023-02-20T01:01:51.809Z,5927.00
2023-02-20T01:02:01.772Z,5916.00
2023-02-20T01:02:11.791Z,5923.00
2023-02-20T01:02:21.767Z,5913.00
2023-02-20T01:02:31.789Z,5921.00
2023-02-20T01:02:41.838Z,5920.00
2023-02-20T01:02:51.831Z,5931.00
2023-02-20T01:03:01.831Z,5937.00
2023-02-20T01:03:11.812Z,5929.00
2023-02-20T01:03:21.812Z,5935.00
2023-02-20T01:03:31.831Z,5948.00
2023-02-20T01:03:41.850Z,5968.00
2023-02-20T01:03:51.836Z,5974.00
2023-02-20T01:04:01.836Z,5979.00
2023-02-20T01:04:11.886Z,5970.00
2023-02-20T01:04:21.881Z,5978.00
2023-02-20T01:04:31.902Z,5974.00
2023-02-20T01:04:41.955Z,5971.00
2023-02-20T01:04:51.898Z,5965.00
2023-02-20T01:05:01.899Z,5959.00
2023-02-20T01:05:11.912Z,5950.00
2023-02-20T01:05:21.921Z,5945.00
2023-02-20T01:05:31.916Z,5935.00
2023-02-20T01:05:41.973Z,5930.00
2023-02-20T01:05:51.961Z,5933.00
2023-02-20T01:06:01.946Z,5937.00
2023-02-20T01:06:12.302Z,5941.00
2023-02-20T01:06:21.977Z,5940.00
2023-02-20T01:06:31.965Z,5945.00
2023-02-20T01:06:41.964Z,5934.00
2023-02-20T01:06:51.980Z,5935.00
2023-02-20T01:07:01.960Z,5937.00
2023-02-20T01:07:11.954Z,5946.00
2023-02-20T01:07:21.958Z,5949.00
2023-02-20T01:07:31.970Z,5949.00
2023-02-20T01:07:41.941Z,5962.00
2023-02-20T01:07:51.967Z,5970.00
2023-02-20T01:08:01.972Z,5983.00
2023-02-20T01:08:11.959Z,5976.00
2023-02-20T01:08:21.962Z,5986.00
2023-02-20T01:08:31.952Z,5989.00
2023-02-20T01:08:41.969Z,5971.00
2023-02-20T01:08:51.957Z,5967.00
2023-02-20T01:09:01.966Z,5960.00
2023-02-20T01:09:11.958Z,5957.00
2023-02-20T01:09:21.975Z,5961.00
2023-02-20T01:09:31.942Z,5955.00
2023-02-20T01:09:41.969Z,5961.00
2023-02-20T01:09:51.994Z,5958.00
2023-02-20T01:10:01.963Z,5949.00
2023-02-20T01:10:11.965Z,5939.00
2023-02-20T01:10:21.967Z,5936.00
2023-02-20T01:10:31.955Z,5942.00
2023-02-20T01:10:41.943Z,5935.00
2023-02-20T01:10:51.961Z,5936.00
2023-02-20T01:11:01.966Z,5924.00
2023-02-20T01:11:11.966Z,5924.00
2023-02-20T01:11:21.960Z,5912.00
2023-02-20T01:11:31.969Z,5914.00
2023-02-20T01:11:41.932Z,5916.00
2023-02-20T01:11:51.962Z,5926.00
2023-02-20T01:12:01.955Z,5912.00
2023-02-20T01:12:11.943Z,5921.00
2023-02-20T01:12:21.970Z,5923.00
2023-02-20T01:12:31.964Z,5929.00
2023-02-20T01:12:41.970Z,5918.00
2023-02-20T01:12:51.978Z,5908.00
2023-02-20T01:13:01.967Z,5911.00
2023-02-20T01:13:12.011Z,5906.00
2023-02-20T01:13:21.995Z,5915.00
2023-02-20T01:13:32.013Z,5921.00
2023-02-20T01:13:42.042Z,5921.00
2023-02-20T01:13:52.021Z,5912.00
2023-02-20T01:14:02.020Z,5912.00
2023-02-20T01:14:12.059Z,5899.00
2023-02-20T01:14:22.063Z,5892.00
2023-02-20T01:14:32.053Z,5900.00
2023-02-20T01:14:42.075Z,5904.00
2023-02-20T01:14:52.132Z,5897.00
2023-02-20T01:15:02.086Z,5898.00
2023-02-20T01:15:12.167Z,5918.00
2023-02-20T01:15:22.097Z,5924.00
2023-02-20T01:15:32.101Z,5935.00
2023-02-20T01:15:42.152Z,5935.00
2023-02-20T01:15:52.145Z,5953.00
2023-02-20T01:16:02.184Z,5961.00
2023-02-20T01:16:12.462Z,5944.00
2023-02-20T01:16:22.199Z,5949.00
2023-02-20T01:16:32.288Z,5950.00
2023-02-20T01:16:42.163Z,5936.00
2023-02-20T01:16:52.158Z,5932.00
2023-02-20T01:17:02.144Z,5934.00
2023-02-20T01:17:12.156Z,5919.00
2023-02-20T01:17:22.165Z,5909.00
2023-02-20T01:17:32.154Z,5911.00
2023-02-20T01:17:42.169Z,5908.00
2023-02-20T01:17:52.155Z,5898.00
2023-02-20T01:18:02.154Z,5905.00
2023-02-20T01:18:12.168Z,5916.00
2023-02-20T01:18:22.202Z,5910.00
2023-02-20T01:18:32.115Z,5910.00
2023-02-20T01:18:42.172Z,5912.00
2023-02-20T01:18:52.143Z,5896.00
2023-02-20T01:19:02.166Z,5916.00
2023-02-20T01:19:12.201Z,5925.00
2023-02-20T01:19:22.224Z,5930.00
2023-02-20T01:19:32.150Z,5926.00
2023-02-20T01:19:42.213Z,5921.00
2023-02-20T01:19:52.254Z,5913.00
2023-02-20T01:20:02.209Z,5908.00
2023-02-20T01:20:12.207Z,5901.00
2023-02-20T01:20:22.293Z,5904.00
2023-02-20T01:20:32.218Z,5902.00
2023-02-20T01:20:42.231Z,5887.00
2023-02-20T01:20:52.220Z,5881.00
2023-02-20T01:21:02.262Z,5891.00
2023-02-20T01:21:12.273Z,5874.00
2023-02-20T01:21:22.292Z,5880.00
2023-02-20T01:21:32.260Z,5871.00
2023-02-20T01:21:42.292Z,5873.00
2023-02-20T01:21:52.296Z,5867.00
2023-02-20T01:22:02.317Z,5874.00
2023-02-20T01:22:12.294Z,5889.00
2023-02-20T01:22:22.385Z,5906.00
2023-02-20T01:22:32.309Z,5912.00
2023-02-20T01:22:42.341Z,5925.00
2023-02-20T01:22:52.356Z,5933.00
2023-02-20T01:23:02.336Z,5936.00
2023-02-20T01:23:12.360Z,5940.00
2023-02-20T01:23:22.357Z,5933.00
2023-02-20T01:23:32.365Z,5927.00
2023-02-20T01:23:42.394Z,5914.00
2023-02-20T01:23:52.402Z,5905.00
2023-02-20T01:24:02.383Z,5892.00
2023-02-20T01:24:12.419Z,5886.00
2023-02-20T01:24:22.423Z,5873.00
2023-02-20T01:24:32.425Z,5851.00
2023-02-20T01:24:42.436Z,5839.00
2023-02-20T01:24:52.513Z,5839.00
2023-02-20T01:25:02.434Z,5834.00
2023-02-20T01:25:12.488Z,5831.00
2023-02-20T01:25:22.480Z,5835.00
2023-02-20T01:25:32.461Z,5834.00
2023-02-20T01:25:42.509Z,5835.00
2023-02-20T01:25:52.504Z,5837.00
2023-02-20T01:26:02.526Z,5827.00
2023-02-20T01:26:12.848Z,5849.00
2023-02-20T01:26:22.493Z,5856.00
2023-02-20T01:26:32.501Z,5861.00
2023-02-20T01:26:42.520Z,5859.00
2023-02-20T01:26:52.515Z,5852.00
2023-02-20T01:27:02.509Z,5860.00
2023-02-20T01:27:12.517Z,5875.00
2023-02-20T01:27:22.509Z,5864.00
2023-02-20T01:27:32.506Z,5864.00
2023-02-20T01:27:42.512Z,5866.00
2023-02-20T01:27:52.524Z,5860.00
2023-02-20T01:28:02.493Z,5863.00
2023-02-20T01:28:12.509Z,5864.00
2023-02-20T01:28:22.512Z,5849.00
2023-02-20T01:28:32.519Z,5857.00
2023-02-20T01:28:42.529Z,5848.00
2023-02-20T01:28:52.517Z,5847.00
2023-02-20T01:29:02.491Z,5853.00
2023-02-20T01:29:12.533Z,5859.00
2023-02-20T01:29:22.499Z,5862.00
2023-02-20T01:29:32.496Z,5879.00
2023-02-20T01:29:42.500Z,5880.00
2023-02-20T01:29:52.540Z,5897.00
2023-02-20T01:30:02.508Z,5913.00
2023-02-20T01:30:12.623Z,5931.00
2023-02-20T01:30:22.510Z,5948.00
2023-02-20T01:30:32.529Z,5960.00
2023-02-20T01:30:42.498Z,5968.00
2023-02-20T01:30:52.496Z,5969.00
2023-02-20T01:31:02.541Z,5982.00
2023-02-20T01:31:12.594Z,5994.00
2023-02-20T01:31:22.548Z,5998.00
2023-02-20T01:31:32.568Z,5988.00
2023-02-20T01:31:42.531Z,5981.00
2023-02-20T01:31:52.584Z,5997.00
2023-02-20T01:32:02.593Z,6001.00
2023-02-20T01:32:12.518Z,6020.00
2023-02-20T01:32:22.495Z,6034.00
2023-02-20T01:32:32.498Z,6049.00
2023-02-20T01:32:42.518Z,6060.00
2023-02-20T01:32:52.500Z,6071.00
2023-02-20T01:33:02.530Z,6097.00
2023-02-20T01:33:12.546Z,6110.00
2023-02-20T01:33:22.588Z,6089.00
2023-02-20T01:33:32.543Z,6082.00
2023-02-20T01:33:42.568Z,6051.00
2023-02-20T01:33:52.557Z,6039.00
2023-02-20T01:34:02.563Z,6022.00
2023-02-20T01:34:12.591Z,6004.00
2023-02-20T01:34:22.844Z,5983.00
2023-02-20T01:34:32.595Z,5983.00
2023-02-20T01:34:42.601Z,5980.00
2023-02-20T01:34:52.678Z,5978.00
2023-02-20T01:35:02.619Z,5982.00
2023-02-20T01:35:12.630Z,5978.00
2023-02-20T01:35:22.862Z,5979.00
2023-02-20T01:35:32.647Z,5981.00
2023-02-20T01:35:42.667Z,5970.00
2023-02-20T01:35:52.658Z,5964.00
2023-02-20T01:36:02.660Z,5978.00
2023-02-20T01:36:13.073Z,5993.00
2023-02-20T01:36:22.894Z,6019.00
2023-02-20T01:36:32.675Z,6046.00
2023-02-20T01:36:42.671Z,6075.00
2023-02-20T01:36:52.673Z,6080.00
2023-02-20T01:37:02.683Z,6080.00
2023-02-20T01:37:12.660Z,6088.00
2023-02-20T01:37:22.690Z,6081.00
2023-02-20T01:37:32.664Z,6078.00
2023-02-20T01:37:42.678Z,6057.00
2023-02-20T01:37:52.678Z,6046.00
2023-02-20T01:38:02.674Z,6033.00
2023-02-20T01:38:12.694Z,6037.00
2023-02-20T01:38:22.694Z,6037.00
2023-02-20T01:38:32.699Z,6029.00
2023-02-20T01:38:42.721Z,6038.00
2023-02-20T01:38:52.715Z,6038.00
2023-02-20T01:39:02.744Z,6037.00
2023-02-20T01:39:12.731Z,6045.00
2023-02-20T01:39:22.728Z,6054.00
2023-02-20T01:39:32.779Z,6044.00
2023-02-20T01:39:42.784Z,6045.00
2023-02-20T01:39:52.844Z,6041.00
2023-02-20T01:40:02.760Z,6039.00
2023-02-20T01:40:12.803Z,6039.00
2023-02-20T01:40:22.777Z,6042.00
2023-02-20T01:40:32.796Z,6047.00
2023-02-20T01:40:42.827Z,6063.00
2023-02-20T01:40:52.825Z,6072.00
2023-02-20T01:41:02.815Z,6080.00
2023-02-20T01:41:12.838Z,6093.00
2023-02-20T01:41:22.833Z,6103.00
2023-02-20T01:41:32.826Z,6093.00
2023-02-20T01:41:42.871Z,6105.00
2023-02-20T01:41:52.880Z,6093.00
2023-02-20T01:42:02.886Z,6086.00
2023-02-20T01:42:12.910Z,6095.00
2023-02-20T01:42:22.892Z,6104.00
2023-02-20T01:42:32.894Z,6103.00
2023-02-20T01:42:42.920Z,6128.00
2023-02-20T01:42:52.915Z,6129.00
2023-02-20T01:43:02.917Z,6128.00
2023-02-20T01:43:12.924Z,6138.00
2023-02-20T01:43:22.942Z,6140.00
2023-02-20T01:43:32.945Z,6153.00
2023-02-20T01:43:42.967Z,6160.00
2023-02-20T01:43:52.981Z,6148.00
2023-02-20T01:44:02.952Z,6135.00
2023-02-20T01:44:12.988Z,6115.00
2023-02-20T01:44:23.008Z,6113.00
2023-02-20T01:44:33.016Z,6093.00
2023-02-20T01:44:43.016Z,6092.00
2023-02-20T01:44:53.087Z,6095.00
2023-02-20T01:45:03.013Z,6091.00
2023-02-20T01:45:13.042Z,6094.00
2023-02-20T01:45:23.025Z,6098.00
2023-02-20T01:45:33.052Z,6110.00
2023-02-20T01:45:43.070Z,6104.00
2023-02-20T01:45:53.040Z,6097.00
2023-02-20T01:46:03.063Z,6098.00
2023-02-20T01:46:13.361Z,6091.00
2023-02-20T01:46:23.118Z,6096.00
2023-02-20T01:46:33.109Z,6112.00
2023-02-20T01:46:43.128Z,6107.00
2023-02-20T01:46:53.163Z,6102.00
2023-02-20T01:47:03.099Z,6096.00
2023-02-20T01:47:13.104Z,6086.00
2023-02-20T01:47:23.083Z,6086.00
2023-02-20T01:47:33.083Z,6076.00
2023-02-20T01:47:43.074Z,6060.00
2023-02-20T01:47:53.097Z,6058.00
2023-02-20T01:48:03.084Z,6060.00
2023-02-20T01:48:13.075Z,6050.00
2023-02-20T01:48:23.077Z,6037.00
2023-02-20T01:48:33.075Z,6033.00
2023-02-20T01:48:43.079Z,6021.00
2023-02-20T01:48:53.088Z,6019.00
2023-02-20T01:49:03.097Z,6016.00
2023-02-20T01:49:13.082Z,6001.00
2023-02-20T01:49:23.084Z,6000.00
2023-02-20T01:49:33.084Z,5998.00
2023-02-20T01:49:43.074Z,5978.00
2023-02-20T01:49:53.061Z,5972.00
2023-02-20T01:50:03.153Z,5973.00
2023-02-20T01:50:13.068Z,5957.00
2023-02-20T01:50:23.078Z,5954.00
2023-02-20T01:50:33.086Z,5952.00
2023-02-20T01:50:43.083Z,5964.00
2023-02-20T01:50:53.076Z,5960.00
2023-02-20T01:51:03.073Z,5968.00
2023-02-20T01:51:13.078Z,5971.00
2023-02-20T01:51:23.068Z,5972.00
2023-02-20T01:51:33.091Z,5971.00
2023-02-20T01:51:43.110Z,5979.00
2023-02-20T01:51:53.130Z,5977.00
2023-02-20T01:52:03.121Z,5985.00
2023-02-20T01:52:13.143Z,5995.00
2023-02-20T01:52:23.123Z,6002.00
2023-02-20T01:52:33.135Z,6004.00
2023-02-20T01:52:43.149Z,6015.00
2023-02-20T01:52:53.155Z,6011.00
2023-02-20T01:53:03.144Z,5999.00
2023-02-20T01:53:13.180Z,5981.00
2023-02-20T01:53:23.166Z,5970.00
2023-02-20T01:53:33.185Z,5969.00
2023-02-20T01:53:43.230Z,5962.00
2023-02-20T01:53:53.217Z,5961.00
2023-02-20T01:54:03.200Z,5941.00
2023-02-20T01:54:13.233Z,5933.00
2023-02-20T01:54:23.243Z,5929.00
2023-02-20T01:54:33.246Z,5927.00
2023-02-20T01:54:43.253Z,5932.00
2023-02-20T01:54:53.260Z,5933.00
2023-02-20T01:55:03.318Z,5930.00
2023-02-20T01:55:13.275Z,5929.00
2023-02-20T01:55:23.285Z,5930.00
2023-02-20T01:55:33.267Z,5933.00
2023-02-20T01:55:43.331Z,5945.00
2023-02-20T01:55:53.321Z,5941.00
2023-02-20T01:56:03.319Z,5942.00
2023-02-20T01:56:13.555Z,5955.00
2023-02-20T01:56:23.350Z,5952.00
2023-02-20T01:56:33.340Z,5957.00
2023-02-20T01:56:43.344Z,5951.00
2023-02-20T01:56:53.342Z,5954.00
2023-02-20T01:57:03.343Z,5956.00
2023-02-20T01:57:13.325Z,5959.00
2023-02-20T01:57:23.316Z,5953.00
2023-02-20T01:57:33.323Z,5947.00
2023-02-20T01:57:43.311Z,5944.00
2023-02-20T01:57:53.299Z,5945.00
2023-02-20T01:58:03.345Z,5950.00
2023-02-20T01:58:13.325Z,5957.00
2023-02-20T01:58:23.308Z,5953.00
2023-02-20T01:58:33.323Z,5958.00
2023-02-20T01:58:43.342Z,5963.00
2023-02-20T01:58:53.304Z,5963.00
2023-02-20T01:59:03.322Z,5972.00
2023-02-20T01:59:13.317Z,5971.00
2023-02-20T01:59:23.330Z,5984.00
2023-02-20T01:59:33.311Z,5988.00
2023-02-20T01:59:43.313Z,5979.00
2023-02-20T01:59:53.319Z,5979.00
2023-02-20T02:00:03.318Z,6000.00
2023-02-20T02:00:13.369Z,5996.00
2023-02-20T02:00:23.306Z,5985.00
2023-02-20T02:00:33.345Z,5968.00
2023-02-20T02:00:43.366Z,5958.00
2023-02-20T02:00:53.369Z,5953.00